M I D A S
Marine Information and Data Acquisition System
Tripno 2115 of the Zeeleeuw from 2011-06-06 06:29:49 to 2011-06-06 14:13:31
Back to CruiseResearch ActivitiesStationsMapUnderway DataData graphs

EquipmentUnitsComment
TimeDGPSUTC
LatitudeDGPSDM.mWGS84
LongitudeDGPSDM.mWGS84
HeadingGyrodeg 
SOGDGPSknotsSpeed over ground
COGDGPSdegCourse over ground
DepthEcho soundermeters200 kHz
Missing or incorrect values are displayed as -999
Navigation data collected by the RV Zeeleeuw from 2011-06-06 06:30:19 to 2011-06-06 14:23:41
Time Latitude Longitude Heading SOG COG Depth
2011-06-06 06:31:25 51°13.635 2°56.019 127.1 -999 221 7.9
2011-06-06 06:32:25 51°13.635 2°56.019 121.3 -999 205 7.9
2011-06-06 06:33:25 51°13.633 2°56.018 111.1 0.2 275 7.9
2011-06-06 06:34:29 51°13.656 2°55.929 111.5 5 293 -999
2011-06-06 06:35:29 51°13.683 2°55.814 106.2 4.1 288 -999
2011-06-06 06:36:29 51°13.697 2°55.735 87.2 0.5 318 -999
2011-06-06 06:37:27 51°13.698 2°55.737 35.9 1.9 217 12.3
2011-06-06 06:38:29 51°13.707 2°55.723 354.2 3.5 349 -999
2011-06-06 06:39:27 51°13.791 2°55.67 335.5 6.8 333 11
2011-06-06 06:40:25 51°13.909 2°55.584 335.7 8.9 335 11.1
2011-06-06 06:41:25 51°14.046 2°55.478 334.4 9.1 333 10.9
2011-06-06 06:42:25 51°14.178 2°55.381 337.2 8.3 336 10.8
2011-06-06 06:43:25 51°14.296 2°55.277 327.8 8 326 10.7
2011-06-06 06:44:25 51°14.401 2°55.147 323.3 8.2 322 10.6
2011-06-06 06:45:25 51°14.507 2°55.011 325.3 9.1 324 11.7
2011-06-06 06:46:25 51°14.658 2°54.838 332.3 12.5 326 12.3
2011-06-06 06:47:25 51°14.82 2°54.672 331.3 11.8 327 11.6
2011-06-06 06:48:25 51°14.995 2°54.481 327.5 13.2 325 12.1
2011-06-06 06:49:25 51°15.178 2°54.285 326.7 13.3 323 12.2
2011-06-06 06:50:25 51°15.346 2°54.062 322.6 13.1 320 11.7
2011-06-06 06:51:25 51°15.51 2°53.836 318.7 13 315 11.7
2011-06-06 06:52:25 51°15.669 2°53.601 322.9 13 320 12.2
2011-06-06 06:53:26 51°15.85 2°53.409 334.6 12.8 332 11.7
2011-06-06 06:54:25 51°16.038 2°53.26 336.1 12.8 333 12.1
2011-06-06 06:55:26 51°16.232 2°53.096 333.2 13 330 12.1
2011-06-06 06:56:25 51°16.418 2°52.931 336.1 13.1 334 12.1
2011-06-06 06:57:25 51°16.61 2°52.769 332.2 13 330 11.7
2011-06-06 06:58:25 51°16.803 2°52.621 345.5 12.5 344 9.5
2011-06-06 06:59:25 51°17.009 2°52.567 355 12.5 351 9.7
2011-06-06 07:00:25 51°17.214 2°52.498 347.8 12.4 346 9.9
2011-06-06 07:01:25 51°17.421 2°52.431 353.5 12.5 351 10.3
2011-06-06 07:02:25 51°17.625 2°52.373 353.1 12.4 351 10.5
2011-06-06 07:03:25 51°17.828 2°52.311 351.8 12.4 347 10.5
2011-06-06 07:04:25 51°18.03 2°52.223 349.1 12.6 345 11.2
2011-06-06 07:05:25 51°18.232 2°52.139 347.9 12.4 344 12.2
2011-06-06 07:06:25 51°18.436 2°52.071 352.8 12.6 349 12.1
2011-06-06 07:07:26 51°18.641 2°51.984 347.7 12.5 344 12.9
2011-06-06 07:08:25 51°18.84 2°51.909 352.1 12.4 349 13.7
2011-06-06 07:09:25 51°19.044 2°51.838 349.6 12.5 346 14.6
2011-06-06 07:10:25 51°19.245 2°51.75 349.2 12.4 345 15.5
2011-06-06 07:11:26 51°19.449 2°51.672 352.6 12.6 348 15.9
2011-06-06 07:12:25 51°19.65 2°51.602 351.4 12.7 347 14.9
2011-06-06 07:13:25 51°19.854 2°51.516 347.5 12.7 344 15.4
2011-06-06 07:14:25 51°20.058 2°51.431 349.2 12.3 346 13.9
2011-06-06 07:15:25 51°20.263 2°51.354 351.6 12.8 347 13.7
2011-06-06 07:16:25 51°20.467 2°51.278 351.5 12.5 347 15
2011-06-06 07:17:25 51°20.67 2°51.196 347.9 12.7 344 17
2011-06-06 07:18:25 51°20.874 2°51.104 349.9 12.7 346 19.3
2011-06-06 07:19:25 51°21.079 2°51.032 350.9 12.6 346 22.4
2011-06-06 07:20:25 51°21.282 2°50.94 349.5 12.6 345 23.1
2011-06-06 07:21:25 51°21.49 2°50.871 351.8 12.8 348 23.8
2011-06-06 07:22:25 51°21.699 2°50.79 347.7 13 345 23.9
2011-06-06 07:23:25 51°21.908 2°50.712 352 12.7 349 23
2011-06-06 07:24:25 51°22.114 2°50.625 348.3 12.7 344 23
2011-06-06 07:25:25 51°22.317 2°50.545 351.7 12.5 347 22.2
2011-06-06 07:26:25 51°22.524 2°50.476 351.6 12.6 347 22.5
2011-06-06 07:27:25 51°22.725 2°50.389 349.4 12.6 346 21.1
2011-06-06 07:28:25 51°22.928 2°50.304 349.2 12.7 346 14.6
2011-06-06 07:29:25 51°23.134 2°50.223 350.2 12.4 347 15.8
2011-06-06 07:30:25 51°23.339 2°50.153 350.5 12.7 346 18.1
2011-06-06 07:31:25 51°23.543 2°50.061 349.2 12.8 346 20.1
2011-06-06 07:32:25 51°23.748 2°49.99 352.3 12.7 348 21.8
2011-06-06 07:33:25 51°23.95 2°49.906 348.6 12.5 344 22.4
2011-06-06 07:34:26 51°24.154 2°49.813 349.7 12.6 345 22.5
2011-06-06 07:35:25 51°24.355 2°49.734 351.5 12.7 347 23
2011-06-06 07:36:25 51°24.558 2°49.658 352 12.7 347 23
2011-06-06 07:37:25 51°24.76 2°49.573 348.8 12.7 344 22.3
2011-06-06 07:38:26 51°24.967 2°49.474 349.1 12.7 343 22.1
2011-06-06 07:39:25 51°25.167 2°49.382 350.8 12.7 345 22.5
2011-06-06 07:40:25 51°25.372 2°49.302 352 12.8 345 23.1
2011-06-06 07:41:25 51°25.571 2°49.198 338 13 328 22.9
2011-06-06 07:42:25 51°25.735 2°48.968 318.3 13.2 314 24.5
2011-06-06 07:43:25 51°25.877 2°48.739 320.3 11.2 316 23.9
2011-06-06 07:44:25 51°25.977 2°48.578 323.8 6.6 317 24
2011-06-06 07:45:25 51°26.043 2°48.49 345.4 4.3 337 23
2011-06-06 07:46:25 51°26.09 2°48.512 63.7 2.3 65 23.5
2011-06-06 07:47:26 51°26.09 2°48.528 96.9 0.4 192 23.6
2011-06-06 07:48:25 51°26.08 2°48.521 111 1 209 22.2
2011-06-06 07:49:25 51°26.07 2°48.51 107.3 1 214 23.4
2011-06-06 07:50:25 51°26.061 2°48.495 105.8 0.7 230 23.7
2011-06-06 07:51:25 51°26.053 2°48.478 102.6 0.9 230 23.3
2011-06-06 07:52:26 51°26.043 2°48.459 104.9 1.2 229 23.6
2011-06-06 07:53:25 51°26.034 2°48.438 107.5 1.1 234 22.2
2011-06-06 07:54:25 51°26.024 2°48.416 110.4 1 237 23.3
2011-06-06 07:55:25 51°26.013 2°48.394 110.9 1 232 23.1
2011-06-06 07:56:25 51°26.003 2°48.373 111.5 1.1 228 22.3
2011-06-06 07:57:25 51°25.993 2°48.351 112.1 1.1 230 23.6
2011-06-06 07:58:25 51°25.983 2°48.33 111.7 0.9 239 23
2011-06-06 07:59:25 51°25.97 2°48.319 105.6 1.4 123 23.5
2011-06-06 08:00:25 51°25.994 2°48.401 45.1 5.2 42 22.7
2011-06-06 08:01:25 51°26.067 2°48.521 64 6.7 64 23.2
2011-06-06 08:02:25 51°26.118 2°48.682 57.4 6 53 23.7
2011-06-06 08:03:25 51°26.152 2°48.759 69.3 2.1 65 22.3
2011-06-06 08:04:25 51°26.15 2°48.783 105.2 0.6 163 22.6
2011-06-06 08:05:25 51°26.136 2°48.78 125.6 1 191 23.1
2011-06-06 08:06:25 51°26.121 2°48.77 120.7 0.9 206 23.4
2011-06-06 08:07:25 51°26.108 2°48.757 116.3 1 214 23.5
2011-06-06 08:08:25 51°26.097 2°48.741 112.4 0.8 236 22
2011-06-06 08:09:25 51°26.087 2°48.722 110.1 1 236 23.6
2011-06-06 08:10:25 51°26.076 2°48.7 106.2 1 243 23.6
2011-06-06 08:11:25 51°26.065 2°48.677 104.5 1 238 23.4
2011-06-06 08:12:25 51°26.055 2°48.652 104.7 1.1 235 23.2
2011-06-06 08:13:25 51°26.043 2°48.626 104.9 1.2 238 23.4
2011-06-06 08:14:25 51°26.031 2°48.598 109.1 1.2 241 23.6
2011-06-06 08:15:25 51°26.019 2°48.568 114.4 1.3 239 23.2
2011-06-06 08:16:25 51°26.008 2°48.538 119.3 1.2 238 22.6
2011-06-06 08:17:25 51°25.995 2°48.507 120.2 1.4 238 22.8
2011-06-06 08:18:25 51°25.983 2°48.478 119.2 1.5 233 23.4
2011-06-06 08:19:25 51°25.971 2°48.449 119.9 1.3 223 23
2011-06-06 08:20:25 51°25.959 2°48.471 81.1 3.4 85 22.9
2011-06-06 08:21:25 51°26.017 2°48.596 41 8 35 23.2
2011-06-06 08:22:25 51°26.165 2°48.655 6.5 10.4 1 22.1
2011-06-06 08:23:26 51°26.346 2°48.643 5.8 10.6 3 19.4
2011-06-06 08:24:25 51°26.434 2°48.714 59.4 2.8 62 20.1
2011-06-06 08:25:25 51°26.432 2°48.735 100.5 0.5 227 20.2
2011-06-06 08:26:25 51°26.418 2°48.718 125.3 1.6 215 19.2
2011-06-06 08:27:25 51°26.401 2°48.702 122.6 1.3 213 19.9
2011-06-06 08:28:25 51°26.386 2°48.684 114.8 1.2 217 20.6
2011-06-06 08:29:25 51°26.373 2°48.666 111.4 0.8 226 20
2011-06-06 08:30:25 51°26.358 2°48.646 109 1 219 18.4
2011-06-06 08:31:25 51°26.343 2°48.625 106.9 1.2 222 19.2
2011-06-06 08:32:25 51°26.329 2°48.604 104.4 1 232 17.4
2011-06-06 08:33:25 51°26.314 2°48.58 102.7 1.2 229 20.3
2011-06-06 08:34:25 51°26.301 2°48.556 102.8 1.3 226 21.4
2011-06-06 08:35:25 51°26.288 2°48.532 103.9 1.3 225 20.7
2011-06-06 08:36:25 51°26.274 2°48.509 102.9 1.4 224 19.7
2011-06-06 08:37:25 51°26.259 2°48.485 103 1.5 221 20.5
2011-06-06 08:38:25 51°26.244 2°48.461 101.6 1.3 223 22.5
2011-06-06 08:39:25 51°26.231 2°48.438 100 1.2 227 22.2
2011-06-06 08:40:25 51°26.217 2°48.414 99.8 1 236 19.6
2011-06-06 08:41:26 51°26.203 2°48.39 103.8 1.2 230 21.6
2011-06-06 08:42:25 51°26.188 2°48.366 103.1 1.2 229 22
2011-06-06 08:43:25 51°26.173 2°48.341 101.9 1.3 222 21
2011-06-06 08:44:25 51°26.158 2°48.315 101 1.4 222 19.2
2011-06-06 08:45:25 51°26.142 2°48.291 99.5 1.4 223 21.9
2011-06-06 08:46:25 51°26.127 2°48.267 98.1 1.3 225 21.9
2011-06-06 08:47:25 51°26.11 2°48.242 98.4 1.6 221 19.4
2011-06-06 08:48:25 51°26.091 2°48.228 105.6 1.4 156 22.5
2011-06-06 08:49:25 51°26.037 2°48.258 159 5.8 177 22.3
2011-06-06 08:50:25 51°25.897 2°48.176 212.9 10.8 226 22.7
2011-06-06 08:51:25 51°25.804 2°47.885 243.2 13.9 246 22.7
2011-06-06 08:52:25 51°25.699 2°47.548 241.2 14.1 241 24.4
2011-06-06 08:53:25 51°25.586 2°47.215 238.9 14.8 243 23.8
2011-06-06 08:54:25 51°25.474 2°46.878 243.2 14.2 241 23.8
2011-06-06 08:55:25 51°25.364 2°46.541 240.9 14.1 240 24.2
2011-06-06 08:56:25 51°25.25 2°46.203 240 14.4 239 24.3
2011-06-06 08:57:25 51°25.138 2°45.864 241.1 14.2 242 24.3
2011-06-06 08:58:25 51°25.022 2°45.528 237.8 14.7 243 25.8
2011-06-06 08:59:25 51°24.911 2°45.189 240 14.6 244 24
2011-06-06 09:00:25 51°24.802 2°44.846 241.2 14.6 243 24.2
2011-06-06 09:01:25 51°24.688 2°44.504 240.2 14.6 241 26.5
2011-06-06 09:02:25 51°24.575 2°44.168 237.5 14.7 239 18.5
2011-06-06 09:03:25 51°24.458 2°43.829 239.7 14.2 239 23
2011-06-06 09:04:26 51°24.341 2°43.484 240.7 14.3 243 24.9
2011-06-06 09:05:25 51°24.231 2°43.145 239.8 14.5 248 22.4
2011-06-06 09:06:25 51°24.121 2°42.8 242.8 14.5 246 25.7
2011-06-06 09:07:25 51°24.019 2°42.454 244.4 14.4 248 23.1
2011-06-06 09:08:25 51°23.937 2°42.095 251.5 14.3 251 25.1
2011-06-06 09:09:25 51°23.86 2°41.734 251.1 14.4 253 26.4
2011-06-06 09:10:25 51°23.782 2°41.371 252.1 14.6 253 26.2
2011-06-06 09:11:25 51°23.717 2°41.004 257.7 14.3 258 27.6
2011-06-06 09:12:25 51°23.668 2°40.634 260.4 14.2 260 27.8
2011-06-06 09:13:26 51°23.622 2°40.258 261.5 14.2 258 29.3
2011-06-06 09:14:25 51°23.57 2°39.896 257.4 14.1 255 28.6
2011-06-06 09:15:25 51°23.529 2°39.557 265.5 12.3 263 27.6
2011-06-06 09:16:25 51°23.517 2°39.24 271.9 11.4 269 28.6
2011-06-06 09:17:25 51°23.507 2°38.946 270.5 10.7 268 24.5
2011-06-06 09:18:25 51°23.494 2°38.676 270.7 10.1 264 26
2011-06-06 09:19:25 51°23.475 2°38.412 268.9 10 263 26.2
2011-06-06 09:20:25 51°23.457 2°38.151 268.7 9.9 265 24.6
2011-06-06 09:21:25 51°23.436 2°37.891 266.6 9.9 261 25.6
2011-06-06 09:22:25 51°23.411 2°37.644 264.3 8.9 259 23
2011-06-06 09:23:25 51°23.386 2°37.42 268.7 8.3 260 23.6
2011-06-06 09:24:25 51°23.37 2°37.203 272.2 8 265 23.5
2011-06-06 09:25:25 51°23.355 2°36.988 270.5 8 263 23.3
2011-06-06 09:26:25 51°23.338 2°36.774 268.8 8.1 262 20.8
2011-06-06 09:27:25 51°23.317 2°36.56 267.2 8.2 260 24.3
2011-06-06 09:28:25 51°23.292 2°36.339 265 8.8 258 23.8
2011-06-06 09:29:25 51°23.23 2°36.111 238 9.9 237 22.3
2011-06-06 09:30:25 51°23.092 2°35.912 211.3 12.5 213 23.2
2011-06-06 09:31:25 51°22.896 2°35.714 210.7 14.4 214 23.7
2011-06-06 09:32:25 51°22.687 2°35.537 199.3 14.1 204 23.6
2011-06-06 09:33:25 51°22.467 2°35.385 199.2 14.6 203 25.5
2011-06-06 09:34:25 51°22.248 2°35.231 194 14.1 201 27.9
2011-06-06 09:35:25 51°22.02 2°35.105 193.9 14.5 199 29.4
2011-06-06 09:36:25 51°21.794 2°34.973 194.7 14.5 201 29.1
2011-06-06 09:37:25 51°21.567 2°34.834 195.7 15.1 203 30.1
2011-06-06 09:38:25 51°21.364 2°34.625 217.9 14.6 220 33.2
2011-06-06 09:39:25 51°21.203 2°34.326 234.3 15.1 237 29.8
2011-06-06 09:40:25 51°21.078 2°33.987 244.7 14.7 244 29.1
2011-06-06 09:41:25 51°20.978 2°33.624 249 14.9 246 30.4
2011-06-06 09:42:25 51°20.878 2°33.259 246.1 14.8 249 29.5
2011-06-06 09:43:25 51°20.772 2°32.9 244.8 15 246 29
2011-06-06 09:44:25 51°20.67 2°32.536 248.2 15 253 29.2
2011-06-06 09:45:25 51°20.597 2°32.168 257.9 13.5 255 29.7
2011-06-06 09:46:25 51°20.541 2°31.843 256.2 12.8 255 25
2011-06-06 09:47:25 51°20.47 2°31.483 254 15.3 250 19.9
2011-06-06 09:48:25 51°20.401 2°31.1 255.1 15.4 254 14
2011-06-06 09:49:25 51°20.339 2°30.717 255.6 13.6 256 10.4
2011-06-06 09:49:35 51°30.182 2°32.367 123.8 -999 -999 -999
2011-06-06 09:50:19 51°20.294 2°30.426 256 11.7 258 9.9
2011-06-06 09:51:19 51°20.204 2°30.173 225.2 10.1 231 11.1
2011-06-06 09:52:19 51°20.108 2°29.994 212.2 7.2 220 12.9
2011-06-06 09:53:20 51°20.034 2°29.954 135.8 3.3 172 12.5
2011-06-06 09:54:19 51°20.033 2°29.999 54.6 3.1 43 13.4
2011-06-06 09:55:20 51°20.071 2°30.079 73.1 2.5 81 13.7
2011-06-06 09:56:20 51°20.074 2°30.092 54.3 0.6 308 12.6
2011-06-06 09:57:20 51°20.077 2°30.07 46.5 1.1 271 13.1
2011-06-06 09:58:20 51°20.072 2°30.034 50.3 1.6 254 10.9
2011-06-06 09:59:20 51°20.063 2°29.995 50.1 1.5 243 13.7
2011-06-06 10:00:20 51°20.052 2°29.953 63.4 1.9 250 12.3
2011-06-06 10:01:20 51°20.039 2°29.901 70.8 2 246 11.9
2011-06-06 10:02:20 51°20.024 2°29.858 70.6 2 238 15.5
2011-06-06 10:03:19 51°20.009 2°29.815 71.9 2 235 15.2
2011-06-06 10:04:20 51°19.99 2°29.772 78.5 1.9 233 18.6
2011-06-06 10:05:19 51°19.971 2°29.732 84.8 2 229 20.8
2011-06-06 10:06:20 51°19.95 2°29.69 87.3 2 228 24.2
2011-06-06 10:07:19 51°19.932 2°29.67 90.3 1.8 128 24.6
2011-06-06 10:08:20 51°19.949 2°29.748 52.7 4.6 48 17.8
2011-06-06 10:09:19 51°19.996 2°29.87 80.8 5.9 94 13
2011-06-06 10:10:20 51°20 2°30.027 71 5.8 70 11.6
2011-06-06 10:11:19 51°20.049 2°30.123 42 2.9 16 10.5
2011-06-06 10:12:20 51°20.065 2°30.114 61.3 1 256 9.8
2011-06-06 10:13:20 51°20.06 2°30.091 61.4 1 245 13.1
2011-06-06 10:14:20 51°20.052 2°30.062 59.9 1.5 247 12.9
2011-06-06 10:15:20 51°20.04 2°30.021 62.5 1.7 241 12.4
2011-06-06 10:16:20 51°20.027 2°29.982 61.1 1.7 235 13.7
2011-06-06 10:17:20 51°20.01 2°29.933 72 2.4 245 9.9
2011-06-06 10:18:19 51°19.993 2°29.881 81.3 2.3 240 11.8
2011-06-06 10:19:20 51°19.976 2°29.833 85.2 1.9 241 15
2011-06-06 10:20:19 51°19.958 2°29.784 88.7 2.1 241 14.2
2011-06-06 10:21:20 51°19.939 2°29.738 93.4 2 235 18.1
2011-06-06 10:22:19 51°19.92 2°29.696 94.9 1.9 229 19.2
2011-06-06 10:23:20 51°19.899 2°29.656 93 1.9 230 22.1
2011-06-06 10:24:19 51°19.878 2°29.619 92.8 2 229 25.1
2011-06-06 10:25:20 51°19.857 2°29.58 91.4 1.8 237 25.8
2011-06-06 10:26:20 51°19.835 2°29.544 91.5 2 222 25.7
2011-06-06 10:27:19 51°19.814 2°29.516 91.5 1.2 170 26.3
2011-06-06 10:28:20 51°19.832 2°29.592 51.9 5.5 51 23.7
2011-06-06 10:29:19 51°19.903 2°29.721 51.3 7 48 15.3
2011-06-06 10:30:20 51°19.982 2°29.861 53.1 7.1 50 13.8
2011-06-06 10:31:20 51°20.043 2°29.976 60.9 3.3 60 13.7
2011-06-06 10:32:20 51°20.043 2°30.003 88.8 0.9 169 13.9
2011-06-06 10:33:20 51°20.029 2°29.998 86 0.9 210 13.8
2011-06-06 10:34:20 51°20.015 2°29.978 79 1.3 232 13.8
2011-06-06 10:35:20 51°20 2°29.939 83.6 2 241 11
2011-06-06 10:36:20 51°19.984 2°29.896 80.3 2 239 13.6
2011-06-06 10:37:20 51°19.969 2°29.853 75.7 1.8 242 14.3
2011-06-06 10:38:19 51°19.954 2°29.813 75.7 1.9 240 15.1
2011-06-06 10:39:20 51°19.937 2°29.771 74.1 1.7 235 15.4
2011-06-06 10:40:20 51°19.922 2°29.746 73.1 1.1 210 16.4
2011-06-06 10:41:20 51°19.912 2°29.736 63.3 0.6 197 15.9
2011-06-06 10:42:20 51°19.909 2°29.724 54.7 0.4 242 -999
2011-06-06 10:43:20 51°19.906 2°29.714 50.1 0.5 270 16.1
2011-06-06 10:44:20 51°19.905 2°29.702 43.6 0.4 253 18.1
2011-06-06 10:45:20 51°19.904 2°29.694 43.6 0.3 262 19.1
2011-06-06 10:46:20 51°19.902 2°29.684 41.3 0.4 228 21
2011-06-06 10:47:20 51°19.934 2°29.711 38.4 5.2 34 20.9
2011-06-06 10:48:20 51°19.98 2°29.86 68.2 7 66 13.9
2011-06-06 10:49:20 51°20.019 2°30.004 62.6 3.9 62 13.7
2011-06-06 10:50:20 51°20.046 2°30.043 44.2 1.3 9 12.1
2011-06-06 10:51:20 51°20.058 2°30.031 36.7 1 298 11.3
2011-06-06 10:52:19 51°20.06 2°30.008 33.4 1 251 14.4
2011-06-06 10:53:20 51°20.051 2°29.981 48.5 1.3 238 14.3
2011-06-06 10:54:20 51°20.041 2°29.955 60.9 1 234 13.2
2011-06-06 10:55:20 51°20.031 2°29.933 67.6 1 243 10.8
2011-06-06 10:56:20 51°20.028 2°29.92 58.6 0.2 266 11.8
2011-06-06 10:57:20 51°20.035 2°29.915 46.2 0.6 339 11.8
2011-06-06 10:58:20 51°20.047 2°29.911 40.7 1.2 8 12.3
2011-06-06 10:59:19 51°20.07 2°29.955 75 3 86 12.9
2011-06-06 11:00:20 51°20.037 2°30.055 109 5.8 117 12.4
2011-06-06 11:01:20 51°19.987 2°30.207 103.5 6.8 115 12.8
2011-06-06 11:02:20 51°19.919 2°30.378 119.8 8.1 130 13.8
2011-06-06 11:03:20 51°19.816 2°30.53 124.4 8.5 136 16.7
2011-06-06 11:04:20 51°19.719 2°30.695 117.4 8.6 130 19.1
2011-06-06 11:05:19 51°19.638 2°30.861 111.5 7.7 121 22.2
2011-06-06 11:06:20 51°19.557 2°31.027 111.1 7.6 127 27.8
2011-06-06 11:07:20 51°19.48 2°31.186 112.1 7.5 128 30
2011-06-06 11:08:19 51°19.399 2°31.339 113.8 7.8 133 30.1
2011-06-06 11:09:19 51°19.319 2°31.497 112.9 7.7 128 29.9
2011-06-06 11:10:20 51°19.233 2°31.658 114 7.9 131 30.6
2011-06-06 11:11:20 51°19.151 2°31.817 112.1 7.7 128 30.7
2011-06-06 11:12:19 51°19.073 2°31.974 112.5 7.9 128 30
2011-06-06 11:13:20 51°18.992 2°32.155 111 8.5 127 30.2
2011-06-06 11:14:19 51°18.915 2°32.339 110.3 8.5 122 30.3
2011-06-06 11:15:20 51°18.838 2°32.533 109.7 8.6 122 28.1
2011-06-06 11:16:20 51°18.764 2°32.727 110.5 8.7 121 28.9
2011-06-06 11:17:20 51°18.687 2°32.922 111.1 8.7 122 27.5
2011-06-06 11:18:20 51°18.615 2°33.122 109.6 8.6 117 24.6
2011-06-06 11:19:20 51°18.546 2°33.324 109.8 8.6 121 20.9
2011-06-06 11:20:20 51°18.469 2°33.534 111.2 10.5 120 16.2
2011-06-06 11:21:20 51°18.375 2°33.794 111.9 11.6 120 21.4
2011-06-06 11:22:20 51°18.257 2°34.054 119.9 12.1 131 25.3
2011-06-06 11:23:19 51°18.119 2°34.293 123.1 12.4 134 27.6
2011-06-06 11:24:20 51°17.981 2°34.543 121 12.1 133 27.7
2011-06-06 11:25:20 51°17.848 2°34.791 122.7 12.6 134 19.8
2011-06-06 11:26:20 51°17.722 2°35.042 119.9 12 124 17.6
2011-06-06 11:27:20 51°17.594 2°35.292 121.8 12.4 129 14.7
2011-06-06 11:28:20 51°17.464 2°35.545 122.1 12.7 131 11.6
2011-06-06 11:29:20 51°17.332 2°35.799 121.2 12.4 126 13.9
2011-06-06 11:30:20 51°17.191 2°36.048 124.2 12.7 134 21.2
2011-06-06 11:31:20 51°17.04 2°36.284 125.3 12.6 133 25.8
2011-06-06 11:32:20 51°16.883 2°36.504 136 12.7 148 27.3
2011-06-06 11:33:20 51°16.69 2°36.66 144.5 13.1 156 26.3
2011-06-06 11:34:20 51°16.528 2°36.792 125 6.4 136 26.5
2011-06-06 11:35:20 51°16.513 2°36.872 52.6 1.9 54 26.3
2011-06-06 11:36:20 51°16.538 2°36.868 350.9 2.6 313 26.6
2011-06-06 11:37:20 51°16.568 2°36.779 318.7 4.5 293 26.6
2011-06-06 11:38:19 51°16.604 2°36.722 21.4 1.9 358 26.4
2011-06-06 11:39:19 51°16.619 2°36.765 63.2 2.4 77 26.6
2011-06-06 11:40:20 51°16.639 2°36.83 50.7 2.8 59 26.9
2011-06-06 11:41:20 51°16.646 2°36.851 39.1 0.6 215 26.8
2011-06-06 11:42:19 51°16.625 2°36.831 41.2 1.7 210 26.4
2011-06-06 11:43:19 51°16.598 2°36.803 63.1 2.1 212 26.5
2011-06-06 11:44:20 51°16.569 2°36.772 81.8 1.9 218 26.3
2011-06-06 11:45:20 51°16.539 2°36.74 91.2 2.3 212 26.4
2011-06-06 11:46:20 51°16.51 2°36.708 91.8 2.1 215 26.8
2011-06-06 11:47:20 51°16.482 2°36.676 88.8 2.1 211 27.2
2011-06-06 11:48:20 51°16.453 2°36.646 85.7 2 216 26.6
2011-06-06 11:49:20 51°16.426 2°36.617 83.6 1.9 213 27.1
2011-06-06 11:50:20 51°16.398 2°36.588 83.6 2 216 27.6
2011-06-06 11:51:20 51°16.371 2°36.558 84.3 1.9 214 27.6
2011-06-06 11:52:20 51°16.343 2°36.532 83 1.9 211 27.6
2011-06-06 11:53:20 51°16.316 2°36.506 81.9 1.9 211 28.1
2011-06-06 11:54:20 51°16.29 2°36.48 79.4 1.8 212 28
2011-06-06 11:55:20 51°16.263 2°36.455 78.8 1.9 209 28
2011-06-06 11:56:20 51°16.248 2°36.463 53.8 1.4 65 28
2011-06-06 11:57:20 51°16.296 2°36.506 27.9 4.8 23 27.9
2011-06-06 11:58:20 51°16.381 2°36.551 22.8 5.7 18 27.7
2011-06-06 11:59:20 51°16.476 2°36.601 24.6 6.1 19 27.2
2011-06-06 12:00:20 51°16.57 2°36.655 26.6 6 22 26.8
2011-06-06 12:01:20 51°16.659 2°36.723 32.5 5.9 33 26.6
2011-06-06 12:02:20 51°16.689 2°36.851 89.6 4.4 106 26.5
2011-06-06 12:03:20 51°16.656 2°36.912 103.6 2.4 153 26.8
2011-06-06 12:04:20 51°16.627 2°36.919 95.2 1.5 186 27.1
2011-06-06 12:05:20 51°16.602 2°36.912 81.1 1.5 194 26.8
2011-06-06 12:06:20 51°16.577 2°36.898 74.8 1.6 206 26.9
2011-06-06 12:07:19 51°16.552 2°36.881 74 1.6 207 26.9
2011-06-06 12:08:20 51°16.526 2°36.86 74.1 1.7 208 26.9
2011-06-06 12:09:20 51°16.5 2°36.838 75.1 1.8 209 26.9
2011-06-06 12:10:20 51°16.472 2°36.815 80.5 1.8 207 27.1
2011-06-06 12:11:20 51°16.444 2°36.792 83.6 1.9 207 27.2
2011-06-06 12:12:19 51°16.419 2°36.768 85.1 1.8 208 27.4
2011-06-06 12:13:19 51°16.393 2°36.748 82.4 1.4 174 27.5
2011-06-06 12:14:20 51°16.4 2°36.771 21.9 2 2 27.1
2011-06-06 12:15:20 51°16.45 2°36.728 341.4 4.6 325 27.2
2011-06-06 12:16:20 51°16.518 2°36.707 26.9 3.9 26 27.2
2011-06-06 12:17:20 51°16.57 2°36.779 36.3 4.2 35 26.9
2011-06-06 12:18:20 51°16.626 2°36.818 20 3.3 12 27.1
2011-06-06 12:19:19 51°16.666 2°36.825 22.9 0.5 346 27.1
2011-06-06 12:20:20 51°16.662 2°36.83 53.8 0.5 152 27.3
2011-06-06 12:21:20 51°16.648 2°36.836 59.4 1.1 173 27.5
2011-06-06 12:22:19 51°16.63 2°36.838 58.2 1 179 27.3
2011-06-06 12:23:20 51°16.612 2°36.838 58.8 1 179 26.7
2011-06-06 12:24:20 51°16.593 2°36.836 60.9 1.2 183 27.2
2011-06-06 12:25:20 51°16.574 2°36.834 61.8 1 190 26.7
2011-06-06 12:26:20 51°16.554 2°36.831 63 1.2 185 27.1
2011-06-06 12:27:19 51°16.534 2°36.83 60.2 1.1 182 27.2
2011-06-06 12:28:20 51°16.516 2°36.828 58.7 1.1 189 27.1
2011-06-06 12:29:20 51°16.497 2°36.826 61.6 1.1 185 27.5
2011-06-06 12:30:20 51°16.478 2°36.828 62.9 1.1 177 27.6
2011-06-06 12:31:20 51°16.461 2°36.83 61.5 1 177 27.8
2011-06-06 12:32:20 51°16.444 2°36.834 61.8 0.9 175 27.5
2011-06-06 12:33:20 51°16.425 2°36.836 59.4 1.2 178 27.7
2011-06-06 12:34:20 51°16.406 2°36.834 55.4 1.4 181 28.1
2011-06-06 12:35:20 51°16.392 2°36.839 44.4 0.9 69 27.4
2011-06-06 12:36:19 51°16.436 2°36.818 338.7 5.3 324 27.9
2011-06-06 12:37:20 51°16.523 2°36.712 338.6 6.9 331 27.4
2011-06-06 12:38:20 51°16.604 2°36.719 46.1 4 53 27
2011-06-06 12:39:20 51°16.629 2°36.796 48.1 1.9 65 27.3
2011-06-06 12:40:19 51°16.629 2°36.823 52.4 0.7 111 27.5
2011-06-06 12:41:20 51°16.619 2°36.835 47.3 0.8 157 27.1
2011-06-06 12:42:19 51°16.603 2°36.837 49.6 1.1 182 27.5
2011-06-06 12:43:20 51°16.581 2°36.834 55.9 1.5 181 27.4
2011-06-06 12:44:20 51°16.556 2°36.828 67.3 1.5 189 27.4
2011-06-06 12:45:20 51°16.532 2°36.822 74.1 1.5 185 27.7
2011-06-06 12:46:20 51°16.508 2°36.818 73.1 1.5 182 27.6
2011-06-06 12:47:20 51°16.484 2°36.814 74.5 1.6 181 27.6
2011-06-06 12:48:19 51°16.462 2°36.812 77.1 1.4 165 27.5
2011-06-06 12:49:20 51°16.464 2°36.917 67.6 6.5 75 28.2
2011-06-06 12:50:19 51°16.518 2°37.116 61.8 9.4 65 27.6
2011-06-06 12:51:20 51°16.575 2°37.369 72.7 10.4 79 26.8
2011-06-06 12:52:19 51°16.588 2°37.571 78.4 5.5 87 26.2
2011-06-06 12:53:20 51°16.586 2°37.65 81.1 1.5 122 25.7
2011-06-06 12:54:20 51°16.569 2°37.666 81.2 1.2 162 24.5
2011-06-06 12:55:20 51°16.55 2°37.672 73.9 1.1 174 24.5
2011-06-06 12:56:20 51°16.53 2°37.674 70.5 1.2 183 23.8
2011-06-06 12:57:20 51°16.509 2°37.672 75.5 1.2 185 23.3
2011-06-06 12:58:20 51°16.488 2°37.669 78.6 1.3 185 22.8
2011-06-06 12:59:20 51°16.466 2°37.667 84 1.3 184 22.1
2011-06-06 13:00:20 51°16.446 2°37.665 89.3 1.2 185 21
2011-06-06 13:01:20 51°16.424 2°37.664 94.4 1.3 183 20.2
2011-06-06 13:02:19 51°16.403 2°37.663 95.2 1.3 178 19.1
2011-06-06 13:03:19 51°16.382 2°37.664 93.7 1.2 177 18.5
2011-06-06 13:04:19 51°16.362 2°37.665 92.8 1.2 178 16.9
2011-06-06 13:05:20 51°16.341 2°37.669 90.8 1.3 173 16.6
2011-06-06 13:06:20 51°16.322 2°37.675 88.7 1.3 167 15.2
2011-06-06 13:07:19 51°16.302 2°37.682 92.1 1.2 165 14.2
2011-06-06 13:08:20 51°16.289 2°37.72 65.2 3 73 12.3
2011-06-06 13:09:19 51°16.343 2°37.753 345.1 4.9 345 13.2
2011-06-06 13:10:19 51°16.435 2°37.701 341.1 6.5 340 19.9
2011-06-06 13:11:20 51°16.541 2°37.626 333.8 7 331 25.5
2011-06-06 13:12:20 51°16.611 2°37.56 348.1 3.1 346 27.3
2011-06-06 13:13:19 51°16.639 2°37.578 41.9 1 79 27
2011-06-06 13:14:20 51°16.631 2°37.603 63.7 1.3 128 27.8
2011-06-06 13:15:20 51°16.62 2°37.623 60.2 1.2 148 27
2011-06-06 13:16:19 51°16.604 2°37.637 66.6 0.9 158 26.8
2011-06-06 13:17:20 51°16.585 2°37.646 75.3 1.1 169 26.6
2011-06-06 13:18:19 51°16.567 2°37.65 84.7 1.1 173 26
2011-06-06 13:19:20 51°16.548 2°37.654 92.4 1.1 173 25
2011-06-06 13:20:20 51°16.529 2°37.659 95.9 1 170 24.4
2011-06-06 13:21:20 51°16.511 2°37.665 95 1 167 24
2011-06-06 13:22:20 51°16.493 2°37.674 92 1.2 143 22.7
2011-06-06 13:23:20 51°16.486 2°37.778 81.6 6.9 88 20.4
2011-06-06 13:24:20 51°16.46 2°38.049 105.4 12.7 112 10.6
2011-06-06 13:25:19 51°16.369 2°38.37 112.9 13.7 115 11
2011-06-06 13:26:20 51°16.266 2°38.7 115.5 13.5 116 12.9
2011-06-06 13:27:19 51°16.163 2°39.019 116.9 13.9 117 16.8
2011-06-06 13:28:19 51°16.049 2°39.334 119.7 13.6 124 20.9
2011-06-06 13:29:20 51°15.943 2°39.65 115.6 13.1 116 21.9
2011-06-06 13:30:20 51°15.837 2°39.952 114.8 13.2 116 22
2011-06-06 13:31:20 51°15.741 2°40.269 113.3 13.1 117 20
2011-06-06 13:32:20 51°15.641 2°40.584 115.1 13.3 117 17.2
2011-06-06 13:33:19 51°15.541 2°40.898 113.6 13.7 111 14.5
2011-06-06 13:34:19 51°15.449 2°41.225 106.9 13.4 110 13.2
2011-06-06 13:35:19 51°15.382 2°41.565 106.8 13.7 102 13.2
2011-06-06 13:36:19 51°15.323 2°41.914 101 13.7 103 13.1
2011-06-06 13:37:19 51°15.263 2°42.267 103.8 13.7 108 14.3
2011-06-06 13:38:19 51°15.213 2°42.622 100.2 13.6 99 16
2011-06-06 13:39:19 51°15.169 2°42.979 99.1 13.6 102 16.2
2011-06-06 13:40:19 51°15.123 2°43.336 99.4 13.6 98 15.9
2011-06-06 13:41:20 51°15.111 2°43.702 87.2 13.7 87 17.6
2011-06-06 13:42:19 51°15.118 2°44.059 86.9 13.8 89 20.1
2011-06-06 13:43:19 51°15.107 2°44.426 94 13.8 97 20.6
2011-06-06 13:44:19 51°15.081 2°44.79 95.3 13.9 99 19.6
2011-06-06 13:45:19 51°15.061 2°45.155 92.3 13.7 95 18.1
2011-06-06 13:46:20 51°15.043 2°45.524 93 13.8 94 16.8
2011-06-06 13:47:19 51°15.023 2°45.881 95.8 13.7 95 15.2
2011-06-06 13:48:19 51°14.998 2°46.245 94.1 13.9 95 13.6
2011-06-06 13:49:19 51°14.961 2°46.602 108.9 13.5 113 11.9
2011-06-06 13:50:19 51°14.869 2°46.936 114.1 13.7 115 13.1
2011-06-06 13:51:19 51°14.775 2°47.267 113.3 13.7 110 15.6
2011-06-06 13:52:19 51°14.752 2°47.628 87.9 14 85 15.1
2011-06-06 13:53:19 51°14.773 2°47.999 84.5 13.9 88 14.2
2011-06-06 13:54:19 51°14.789 2°48.369 86.6 14 87 14.8
2011-06-06 13:55:19 51°14.802 2°48.741 87.7 14 88 15.1
2011-06-06 13:56:19 51°14.805 2°49.113 89.6 13.9 92 15.4
2011-06-06 13:57:20 51°14.808 2°49.486 88.5 13.8 88 14.8
2011-06-06 13:58:20 51°14.812 2°49.855 91.9 13.9 92 14.8
2011-06-06 13:59:19 51°14.809 2°50.214 89.5 13.8 90 14.5
2011-06-06 14:00:19 51°14.813 2°50.577 89.2 13.6 90 14.4
2011-06-06 14:01:19 51°14.816 2°50.942 89.1 13.9 88 13.9
2011-06-06 14:02:19 51°14.817 2°51.304 90.9 13.6 84 13.9
2011-06-06 14:03:19 51°14.823 2°51.666 91.6 13.8 89 13.6
2011-06-06 14:04:19 51°14.826 2°52.032 89.7 13.8 89 12.8
2011-06-06 14:05:20 51°14.83 2°52.404 88.3 13.8 90 12.8
2011-06-06 14:06:20 51°14.836 2°52.771 89.5 13.9 86 12.8
2011-06-06 14:07:20 51°14.841 2°53.141 89.4 14.1 85 12.6
2011-06-06 14:08:19 51°14.844 2°53.505 90.1 14 89 12.2
2011-06-06 14:09:19 51°14.839 2°53.878 93.9 14.1 94 12.2
2011-06-06 14:10:19 51°14.825 2°54.247 101.2 13.9 100 12.5
2011-06-06 14:11:19 51°14.745 2°54.588 121.8 13.6 119 13.7
2011-06-06 14:12:19 51°14.615 2°54.872 136.2 13.1 130 14.4
2011-06-06 14:13:19 51°14.446 2°55.078 151.4 12.7 151 13.1
2011-06-06 14:14:20 51°14.289 2°55.242 145.3 10.1 147 13
2011-06-06 14:15:20 51°14.161 2°55.378 147.3 8.9 150 13
2011-06-06 14:16:20 51°14.033 2°55.482 153.2 8.1 155 13.2
2011-06-06 14:17:19 51°13.923 2°55.559 156.9 7.2 157 13.3
2011-06-06 14:18:20 51°13.812 2°55.641 150.6 7.2 150 13.3
2011-06-06 14:19:19 51°13.73 2°55.753 129.6 6 129 14.1
2011-06-06 14:20:20 51°13.677 2°55.87 120.8 4.7 122 11.9
2011-06-06 14:21:19 51°13.648 2°55.965 107.6 3.8 109 11.5
2011-06-06 14:22:20 51°13.636 2°56.017 120.7 0.4 139 10.2
2011-06-06 14:23:20 51°13.636 2°56.018 119.1 0.1 234 10.2